createdAt,value
2022-10-01T00:00:02.572Z,70.6
2022-10-01T00:05:12.720Z,70.1
2022-10-01T00:11:02.243Z,70.1
2022-10-01T00:16:12.845Z,70
2022-10-01T00:22:02.462Z,70.2
2022-10-01T00:27:12.534Z,70.5
2022-10-01T00:32:12.753Z,71.1
2022-10-01T00:38:02.223Z,71.5
2022-10-01T00:43:02.419Z,72.1
2022-10-01T00:48:02.562Z,71.8
2022-10-01T00:53:03.096Z,72.2
2022-10-01T00:58:12.548Z,72.8
2022-10-01T01:03:12.733Z,71.4
2022-10-01T01:08:12.729Z,72.2
2022-10-01T01:14:02.440Z,73.1
2022-10-01T01:19:12.754Z,73.9
2022-10-01T01:24:12.724Z,74.9
2022-10-01T01:30:02.503Z,76.4
2022-10-01T01:35:12.601Z,78.9
2022-10-01T01:40:12.581Z,78.9
2022-10-01T01:46:02.520Z,81.3
2022-10-01T01:51:12.672Z,81.7
2022-10-01T01:56:12.741Z,82.6
2022-10-01T02:01:12.806Z,83.2
2022-10-01T02:07:02.457Z,84
2022-10-01T02:12:02.454Z,84
2022-10-01T02:17:12.751Z,84.9
2022-10-01T02:23:02.429Z,85.2
2022-10-01T02:28:12.809Z,85.7
2022-10-01T02:34:02.468Z,85.5
2022-10-01T02:39:12.927Z,86.1
2022-10-01T02:44:12.748Z,85.4
2022-10-01T02:50:02.373Z,86
2022-10-01T02:55:12.760Z,85.7
2022-10-01T03:01:02.368Z,86.3
2022-10-01T03:06:12.539Z,85.9
2022-10-01T03:12:02.411Z,85.6
2022-10-01T03:17:02.389Z,86.1
2022-10-01T03:22:12.547Z,86.2
2022-10-01T03:28:02.375Z,86.4
2022-10-01T03:33:12.504Z,86.9
2022-10-01T03:39:02.214Z,87.1
2022-10-01T03:44:02.262Z,86.4
2022-10-01T03:49:02.267Z,86.8
2022-10-01T03:54:12.523Z,86.9
2022-10-01T04:00:02.286Z,87.2
2022-10-01T04:05:02.294Z,87.2
2022-10-01T04:10:12.500Z,87.4
2022-10-01T04:15:12.636Z,88.3
2022-10-01T04:21:02.484Z,88.3
2022-10-01T04:26:12.744Z,88.8
2022-10-01T04:32:02.282Z,88.1
2022-10-01T04:37:02.233Z,88.6
2022-10-01T04:42:02.273Z,88.9
2022-10-01T04:47:02.430Z,89.2
2022-10-01T04:52:12.747Z,89.6
2022-10-01T04:58:02.424Z,89
2022-10-01T05:03:02.430Z,88.7
2022-10-01T05:08:02.481Z,88.9
2022-10-01T05:13:12.717Z,88.3
2022-10-01T05:19:02.450Z,87.9
2022-10-01T05:24:12.564Z,87
2022-10-01T05:29:12.706Z,88
2022-10-01T05:34:12.732Z,87
2022-10-01T05:39:13.597Z,86.8
2022-10-01T05:45:02.240Z,86.7
2022-10-01T05:50:02.460Z,86.9
2022-10-01T05:55:12.722Z,86.3
2022-10-01T06:00:12.862Z,86.2
2022-10-01T06:06:02.392Z,86.8
2022-10-01T06:11:02.395Z,87.3
2022-10-01T06:16:02.552Z,86.2
2022-10-01T06:21:12.772Z,87.6
2022-10-01T06:27:02.435Z,86.3
2022-10-01T06:32:12.607Z,87.7
2022-10-01T06:37:12.729Z,86.6
2022-10-01T06:42:12.751Z,87.7
2022-10-01T06:47:12.779Z,86.7
2022-10-01T06:53:02.449Z,86.7
2022-10-01T06:58:02.453Z,86.9
2022-10-01T07:03:12.747Z,87.3
2022-10-01T07:09:02.469Z,87
2022-10-01T07:14:12.673Z,88
2022-10-01T07:19:12.737Z,87.8
2022-10-01T07:25:02.449Z,88.4
2022-10-01T07:30:12.606Z,88.6
2022-10-01T07:35:12.713Z,87.9
2022-10-01T07:40:12.937Z,88
2022-10-01T07:46:02.504Z,87.8
2022-10-01T07:51:12.698Z,87.2
2022-10-01T07:56:12.739Z,86.4
2022-10-01T08:01:12.792Z,85.8
2022-10-01T08:06:12.871Z,85.1
2022-10-01T08:12:02.336Z,85.2
2022-10-01T08:17:02.364Z,84
2022-10-01T08:22:02.456Z,84.3
2022-10-01T08:27:12.836Z,84.9
2022-10-01T08:33:02.410Z,83.2
2022-10-01T08:38:12.745Z,85.5
2022-10-01T08:44:02.443Z,84.1
2022-10-01T08:49:02.439Z,84.1
2022-10-01T08:54:02.449Z,84
2022-10-01T08:59:12.792Z,83.8
2022-10-01T09:05:02.541Z,83.6
2022-10-01T09:10:02.232Z,81.4
2022-10-01T09:15:02.264Z,80.1
2022-10-01T09:20:02.260Z,81.3
2022-10-01T09:25:12.581Z,81.7
2022-10-01T09:31:02.238Z,82.1
2022-10-01T09:36:02.228Z,80.6
2022-10-01T09:41:12.486Z,79.3
2022-10-01T09:46:12.647Z,82.3
2022-10-01T09:52:02.269Z,83
2022-10-01T09:57:02.286Z,84.6
2022-10-01T10:02:12.687Z,85.6
2022-10-01T10:07:12.546Z,85.6
2022-10-01T10:12:12.604Z,85.9
2022-10-01T10:18:02.402Z,84.7
2022-10-01T10:23:02.472Z,83
2022-10-01T10:28:02.781Z,84.2
2022-10-01T10:33:12.595Z,84.4
2022-10-01T10:39:02.441Z,79.8
2022-10-01T10:44:02.461Z,80.8
2022-10-01T10:49:12.603Z,79.3
2022-10-01T10:55:02.409Z,78.4
2022-10-01T11:00:12.816Z,78.5
2022-10-01T11:06:02.271Z,80.5
2022-10-01T11:11:02.481Z,80.2
2022-10-01T11:16:02.921Z,81.4
2022-10-01T11:21:12.792Z,80.8
2022-10-01T11:27:02.477Z,80.1
2022-10-01T11:32:12.763Z,79.9
2022-10-01T11:38:02.459Z,80
2022-10-01T11:43:02.451Z,77.6
2022-10-01T11:48:12.771Z,75.5
2022-10-01T11:54:02.485Z,77
2022-10-01T11:59:12.727Z,79.6
2022-10-01T12:04:12.785Z,77.6
2022-10-01T12:10:02.502Z,79.1
2022-10-01T12:15:06.524Z,78.2
2022-10-01T12:20:12.786Z,79
2022-10-01T12:25:12.805Z,80.5
2022-10-01T12:31:02.523Z,77.4
2022-10-01T12:36:02.480Z,79
2022-10-01T12:41:12.795Z,78.9
2022-10-01T12:47:02.462Z,77.7
2022-10-01T12:52:12.573Z,79.8
2022-10-01T12:57:12.800Z,79.4
2022-10-01T13:03:02.270Z,80
2022-10-01T13:08:02.448Z,81.5
2022-10-01T13:13:12.781Z,80.6
2022-10-01T13:19:02.435Z,75.7
2022-10-01T13:24:02.709Z,78.6
2022-10-01T13:29:12.790Z,78.6
2022-10-01T13:35:02.349Z,78.6
2022-10-01T13:40:22.012Z,77.2
2022-10-01T13:46:02.531Z,79.3
2022-10-01T13:51:02.464Z,76.9
2022-10-01T13:56:12.781Z,78.3
2022-10-01T14:02:02.598Z,77
2022-10-01T14:07:02.463Z,78.2
2022-10-01T14:12:12.757Z,76.6
2022-10-01T14:18:02.488Z,77.9
2022-10-01T14:23:12.832Z,75.3
2022-10-01T14:29:02.498Z,74.1
2022-10-01T14:34:12.796Z,77.1
2022-10-01T14:39:12.824Z,76.9
2022-10-01T14:45:02.478Z,78.5
2022-10-01T14:50:09.366Z,77.7
2022-10-01T14:55:12.742Z,77.9
2022-10-01T15:01:02.278Z,76.7
2022-10-01T15:06:02.536Z,76.9
2022-10-01T15:11:12.526Z,78.4
2022-10-01T15:16:12.594Z,77.9
2022-10-01T15:21:12.783Z,77.5
2022-10-01T15:26:12.939Z,77.1
2022-10-01T15:32:02.269Z,76.7
2022-10-01T15:37:12.629Z,76.8
2022-10-01T15:43:02.280Z,75.6
2022-10-01T15:48:02.279Z,76.6
2022-10-01T15:53:12.652Z,72.6
2022-10-01T15:58:12.640Z,71.3
2022-10-01T16:03:12.742Z,72.3
2022-10-01T16:09:02.298Z,73.4
2022-10-01T16:14:02.302Z,71.2
2022-10-01T16:19:12.604Z,70.5
2022-10-01T16:25:02.376Z,71.2
2022-10-01T16:30:12.565Z,74.2
2022-10-01T16:35:13.143Z,72.1
2022-10-01T16:41:02.327Z,72.6
2022-10-01T16:46:12.771Z,73.7
2022-10-01T16:52:02.486Z,75
2022-10-01T16:57:12.796Z,77.3
2022-10-01T17:02:12.888Z,77.2
2022-10-01T17:08:02.459Z,79.3
2022-10-01T17:13:12.597Z,79.5
2022-10-01T17:18:12.760Z,79.2
2022-10-01T17:24:02.299Z,81.4
2022-10-01T17:29:02.508Z,81.8
2022-10-01T17:34:02.552Z,80.9
2022-10-01T17:39:12.777Z,79.6
2022-10-01T17:44:13.058Z,79.8
2022-10-01T17:50:02.296Z,77.5
2022-10-01T17:55:02.424Z,78.7
2022-10-01T18:00:12.590Z,77
2022-10-01T18:05:12.816Z,77.2
2022-10-01T18:10:12.829Z,77.1
2022-10-01T18:16:02.603Z,77.2
2022-10-01T18:22:03.168Z,79.1
2022-10-01T18:27:12.806Z,79.8
2022-10-01T18:32:12.840Z,80.2
2022-10-01T18:38:02.464Z,80
2022-10-01T18:43:02.498Z,80.1
2022-10-01T18:48:12.816Z,79.3
2022-10-01T18:54:02.521Z,77.8
2022-10-01T18:59:12.844Z,76.9
2022-10-01T19:04:12.835Z,77.5
2022-10-01T19:10:02.636Z,75.9
2022-10-01T19:15:12.792Z,77.3
2022-10-01T19:21:02.507Z,78.9
2022-10-01T19:26:02.503Z,79.3
2022-10-01T19:31:12.814Z,80.1
2022-10-01T19:37:02.543Z,80.2
2022-10-01T19:42:12.828Z,80.3
2022-10-01T19:48:12.571Z,80.8
2022-10-01T19:53:12.663Z,81.6
2022-10-01T19:58:12.772Z,82.2
2022-10-01T20:03:12.796Z,82.1
2022-10-01T20:09:02.475Z,83
2022-10-01T20:14:02.488Z,82.2
2022-10-01T20:19:12.774Z,83.4
2022-10-01T20:24:12.821Z,83.3
2022-10-01T20:29:12.834Z,84.6
2022-10-01T20:34:12.891Z,84.3
2022-10-01T20:40:02.434Z,85
2022-10-01T20:45:02.304Z,85.6
2022-10-01T20:50:05.699Z,85.6
2022-10-01T20:55:02.536Z,86.6
2022-10-01T21:00:12.829Z,86.6
2022-10-01T21:05:12.801Z,86.5
2022-10-01T21:11:02.483Z,86.8
2022-10-01T21:16:02.569Z,87.2
2022-10-01T21:21:03.341Z,86.6
2022-10-01T21:26:12.815Z,88
2022-10-01T21:32:02.436Z,86.7
2022-10-01T21:37:02.356Z,86.9
2022-10-01T21:42:12.621Z,88.1
2022-10-01T21:47:12.646Z,87.9
2022-10-01T21:53:02.316Z,87.4
2022-10-01T21:58:12.637Z,87.3
2022-10-01T22:04:02.380Z,87
2022-10-01T22:09:12.656Z,85.4
2022-10-01T22:15:02.325Z,87
2022-10-01T22:20:12.666Z,85.6
2022-10-01T22:26:02.299Z,86.9
2022-10-01T22:31:02.323Z,85.8
2022-10-01T22:36:02.446Z,86.5
2022-10-01T22:41:12.589Z,86.3
2022-10-01T22:47:02.472Z,86.3
2022-10-01T22:52:02.525Z,85.7
2022-10-01T22:57:02.515Z,85.2
2022-10-01T23:02:12.749Z,86.7
2022-10-01T23:07:12.795Z,85.1
2022-10-01T23:13:02.494Z,85.5
2022-10-01T23:18:12.811Z,85.5
2022-10-01T23:24:02.514Z,85.6
2022-10-01T23:29:12.823Z,85.2
2022-10-01T23:35:02.529Z,84.4
2022-10-01T23:40:12.939Z,84.5
2022-10-01T23:46:02.548Z,84
2022-10-01T23:51:02.567Z,84.5
2022-10-01T23:56:12.807Z,85.6
